Roanoke, Texas
Current Conditions -  °F | °C
As of 9:53 AM on Saturday 22 Nov 2014 (Local Time) from KAFW Reporting Station
Haze Haze  
Wind Chill: 59°   Ceiling: 400
Heat Index: 59°   Visibility: 2mi
Dew Point: 58°   Wind: 13mph
Humidity: 96%   Direction: 150°SSE
Pressure: 30.02"   Gusts: NA
Location:  33°N, 97.23°W
Report Text: KAFW 221553Z 15011KT 2SM BR OVC004 15/14 A3002 RMK AO2 RAB13E22 SLP161 P0001 T01500144
Loading
Personal Weather Stations






























Interactive Weather Map New forecast layout! Learn more

10-Day Weather Forecast

Advertisements
Track Severe Weather on mobile